Terminal Aerodrome Forecast
Issued by NWS

Home | Current Version | Previous Version | Graphics & Text | Print | Product List | Glossary On
Versions: 1 2 3 4 5 6 7 8 9 10 11 12 13
000
FTUS45 KGGW 250526
TAFSDY
TAF
KSDY 250526Z 2506/2606 31010KT P6SM BKN050
     FM251100 29006KT P6SM BKN090
     FM251800 28009KT P6SM BKN050
     FM260000 29006KT P6SM SCT250=

USA.gov is the U.S. government's official web portal to all federal, state and local government web resources and services.